Monday, November 19, 2018, 2:12 AM EST
Back to Local

KMFV, Melfa / Accomack Airport

Location: Melfa, VA, United States Lat: 37.65
Local Time: 2:12 AM EST ( 7:12 GMT) Lon: -75.767
Time Zone: US/Eastern Elev: 49 ft

Show me the last for .
Show Decoded

2018-11-19 01:55 METAR KMFV 190655Z AUTO 00000KT 10SM BKN003 04/03 A3019 RMK AO2 T00360033 =
2018-11-19 01:35 METAR KMFV 190635Z AUTO 00000KT 5SM BR CLR 03/03 A3019 RMK AO2 T00330031 =
2018-11-19 01:15 METAR KMFV 190615Z AUTO 00000KT 4SM BR CLR 03/03 A3019 RMK AO2 T00320030 =
2018-11-19 00:55 METAR KMFV 190555Z AUTO 23004KT 5SM BR SCT003 03/03 A3020 RMK AO2 T00340032
                 10060 20034 =
2018-11-19 00:35 METAR KMFV 190535Z AUTO 00000KT 5SM BR SCT003 03/03 A3019 RMK AO2 T00340032 =
2018-11-19 00:15 METAR KMFV 190515Z AUTO 00000KT 1 3/4SM BR VV007 04/04 A3019 RMK AO2 T00400039 =
2018-11-18 23:55 METAR KMFV 190455Z AUTO 00000KT 3SM BR CLR 04/04 A3020 RMK AO2 T00400038
                 401301006 =
2018-11-18 23:35 METAR KMFV 190435Z AUTO 00000KT 5SM BR CLR 04/04 A3021 RMK AO2 T00420040 =
2018-11-18 23:15 METAR KMFV 190415Z AUTO 00000KT 3SM BR CLR 04/04 A3020 RMK AO2 T00440041 =
2018-11-18 22:55 METAR KMFV 190355Z AUTO 00000KT 4SM BR CLR 04/04 A3021 RMK AO2 T00420039 =
2018-11-18 22:35 METAR KMFV 190335Z AUTO 00000KT 4SM BR CLR 05/04 A3021 RMK AO2 T00460043 =
2018-11-18 22:15 METAR KMFV 190315Z AUTO 00000KT 5SM BR CLR 04/04 A3022 RMK AO2 T00440041 =
2018-11-18 21:55 METAR KMFV 190255Z AUTO 00000KT 7SM CLR 05/05 A3021 RMK AO2 T00470045 =
2018-11-18 21:35 METAR KMFV 190235Z AUTO 00000KT 5SM BR CLR 05/04 A3022 RMK AO2 T00470044 =
2018-11-18 21:15 METAR KMFV 190215Z AUTO 00000KT 4SM BR CLR 05/04 A3022 RMK AO2 T00460044 =
2018-11-18 20:55 METAR KMFV 190155Z AUTO 00000KT 2 1/2SM BR CLR 05/04 A3022 RMK AO2 VIS 1 3/4V5
                 T00450042 =
2018-11-18 20:35 METAR KMFV 190135Z AUTO 00000KT 2SM BR CLR 05/05 A3023 RMK AO2 T00510049 =
2018-11-18 20:15 METAR KMFV 190115Z AUTO 00000KT 7SM CLR 05/05 A3023 RMK AO2 T00510048 =
2018-11-18 19:55 METAR KMFV 190055Z AUTO 00000KT 1 1/2SM BR VV007 05/05 A3024 RMK AO2 T00520050 =
2018-11-18 19:35 METAR KMFV 190035Z AUTO 00000KT 3SM BR CLR 05/05 A3024 RMK AO2 T00540050 =
2018-11-18 19:15 METAR KMFV 190015Z AUTO 00000KT 4SM BR CLR 06/06 A3025 RMK AO2 T00600056 =
2018-11-18 18:55 METAR KMFV 182355Z AUTO 00000KT 10SM CLR 06/06 A3025 RMK AO2 T00620057 10130
                 20060 =
2018-11-18 18:35 METAR KMFV 182335Z AUTO 00000KT 7SM CLR 07/06 A3025 RMK AO2 T00680063 =
2018-11-18 18:15 METAR KMFV 182315Z AUTO 00000KT 10SM CLR 07/07 A3025 RMK AO2 T00740067 =
2018-11-18 17:55 METAR KMFV 182255Z AUTO 00000KT 10SM CLR 08/07 A3026 RMK AO2 T00760066 =
2018-11-18 17:35 METAR KMFV 182235Z AUTO 00000KT 10SM CLR 08/07 A3025 RMK AO2 T00820070 =
2018-11-18 17:15 METAR KMFV 182215Z AUTO 00000KT 10SM CLR 09/07 A3026 RMK AO2 T00890070 =
2018-11-18 16:55 METAR KMFV 182155Z AUTO 00000KT 10SM CLR 10/07 A3026 RMK AO2 T01040072 =
2018-11-18 16:35 METAR KMFV 182135Z AUTO 12003KT 10SM CLR 11/07 A3026 RMK AO2 T01100072 =
2018-11-18 16:15 METAR KMFV 182115Z AUTO 12004KT 10SM CLR 12/07 A3026 RMK AO2 T01170072 =
2018-11-18 15:55 METAR KMFV 182055Z AUTO 00000KT 10SM CLR 12/07 A3026 RMK AO2 T01210072 =
2018-11-18 15:35 METAR KMFV 182035Z AUTO 11003KT 10SM CLR 12/07 A3026 RMK AO2 T01220071 =
2018-11-18 15:15 METAR KMFV 182015Z AUTO 12005KT 10SM CLR 13/07 A3026 RMK AO2 T01260070 =
2018-11-18 14:55 METAR KMFV 181955Z AUTO 11004KT 10SM SCT027 13/07 A3027 RMK AO2 T01300071 =
2018-11-18 14:35 METAR KMFV 181935Z AUTO 10005KT 10SM BKN027 13/07 A3027 RMK AO2 T01280067 =
2018-11-18 14:15 METAR KMFV 181915Z AUTO 10003KT 10SM SCT027 13/07 A3028 RMK AO2 T01250067 =
2018-11-18 13:55 METAR KMFV 181855Z AUTO 09004KT 10SM BKN027 13/07 A3028 RMK AO2 T01290068 =
2018-11-18 13:35 METAR KMFV 181835Z AUTO 10003KT 10SM BKN029 12/07 A3029 RMK AO2 T01220067 =
2018-11-18 13:15 METAR KMFV 181815Z AUTO 13005KT 10SM SCT027 SCT033 12/07 A3029 RMK AO2 T01210066
                 =
2018-11-18 12:55 METAR KMFV 181755Z AUTO 14004KT 10SM SCT027 13/06 A3030 RMK AO2 T01260064 10128
                 21006 =
2018-11-18 12:35 METAR KMFV 181735Z AUTO 11003KT 10SM SCT027 13/06 A3030 RMK AO2 T01250063 =
2018-11-18 12:15 METAR KMFV 181715Z AUTO 13006KT 10SM SCT027 12/06 A3032 RMK AO2 T01210061 =
2018-11-18 11:55 METAR KMFV 181655Z AUTO 11005KT 10SM SCT027 12/06 A3033 RMK AO2 T01220059 =
2018-11-18 11:35 METAR KMFV 181635Z AUTO 12006KT 10SM SCT027 13/06 A3033 RMK AO2 T01250060 =
2018-11-18 11:15 METAR KMFV 181615Z AUTO 10006KT 10SM SCT025 12/06 A3034 RMK AO2 T01230062 =
2018-11-18 10:55 METAR KMFV 181555Z AUTO 09005KT 10SM CLR 12/06 A3035 RMK AO2 T01190059 =
2018-11-18 10:35 METAR KMFV 181535Z AUTO 12005KT 10SM CLR 12/06 A3036 RMK AO2 T01170062 =
2018-11-18 10:15 METAR KMFV 181515Z AUTO 07003KT 10SM CLR 11/06 A3036 RMK AO2 T01100063 =
2018-11-18 09:55 METAR KMFV 181455Z AUTO 06003KT 10SM CLR 10/06 A3037 RMK AO2 T01010058 =
2018-11-18 09:35 METAR KMFV 181435Z AUTO 00000KT 10SM CLR 09/05 A3037 RMK AO2 T00890052 =
2018-11-18 09:15 METAR KMFV 181415Z AUTO 00000KT 10SM CLR 08/04 A3038 RMK AO2 T00750043 =
2018-11-18 08:55 METAR KMFV 181355Z AUTO 04004KT 10SM CLR 07/04 A3038 RMK AO2 T00660040 =
2018-11-18 08:35 METAR KMFV 181335Z AUTO 00000KT 10SM CLR 05/04 A3038 RMK AO2 T00500036 =
2018-11-18 08:15 METAR KMFV 181315Z AUTO 00000KT 7SM CLR 03/02 A3038 RMK AO2 T00290023 =
2018-11-18 07:55 METAR KMFV 181255Z AUTO 00000KT 7SM CLR 02/01 A3037 RMK AO2 T00170014 =
2018-11-18 07:35 METAR KMFV 181235Z AUTO 00000KT 5SM BR CLR 00/00 A3037 RMK AO2 T00020000 =
2018-11-18 07:15 METAR KMFV 181215Z AUTO 00000KT 5SM BR CLR 00/00 A3037 RMK AO2 T10021005 =
2018-11-18 06:55 METAR KMFV 181155Z AUTO 02003KT 7SM CLR 00/00 A3036 RMK AO2 T10011005 10008
                 21005 =
2018-11-18 06:35 METAR KMFV 181135Z AUTO 03003KT 7SM CLR 00/M01 A3035 RMK AO2 T10031006 =
2018-11-18 06:15 METAR KMFV 181115Z AUTO 00000KT 7SM CLR 00/00 A3035 RMK AO2 T00001002 =
2018-11-18 05:55 METAR KMFV 181055Z AUTO 02003KT 5SM BR CLR 00/00 A3035 RMK AO2 T00001002 =
2018-11-18 05:35 METAR KMFV 181035Z AUTO 03003KT 7SM CLR 00/M01 A3034 RMK AO2 T10041006 =
2018-11-18 05:15 METAR KMFV 181015Z AUTO 02003KT 5SM BR CLR 00/00 A3034 RMK AO2 T00001003 =
2018-11-18 04:55 METAR KMFV 180955Z AUTO 02003KT 5SM BR CLR 00/M01 A3034 RMK AO2 T10041007 =
2018-11-18 04:35 METAR KMFV 180935Z AUTO 01003KT 5SM BR CLR 00/00 A3033 RMK AO2 T10011005 =
2018-11-18 04:15 METAR KMFV 180915Z AUTO 04003KT 7SM CLR 00/00 A3033 RMK AO2 T00010000 =
2018-11-18 03:55 METAR KMFV 180855Z AUTO 03003KT 7SM CLR 00/00 A3034 RMK AO2 T00001003 =
2018-11-18 03:35 METAR KMFV 180835Z AUTO 00000KT 7SM CLR 00/00 A3034 RMK AO2 T00001001 =
2018-11-18 03:15 METAR KMFV 180815Z AUTO 00000KT 7SM CLR 00/00 A3033 RMK AO2 T00001002 =
2018-11-18 02:55 METAR KMFV 180755Z AUTO 04003KT 7SM CLR 00/00 A3033 RMK AO2 T00020000 =
2018-11-18 02:35 METAR KMFV 180735Z AUTO 04003KT 7SM CLR 00/00 A3033 RMK AO2 T00040000 =
2018-11-18 02:15 METAR KMFV 180715Z AUTO 00000KT 7SM CLR 00/00 A3033 RMK AO2 T00040001 =

Support USWX by starting your Amazon purchase here.